Time;durP1;ratioP1;P1;durP2;ratioP2;P2;SDS_P1;SDS_P2;PMS_P1;PMS_P2;Temp;Humidity;BMP_temperature;BMP_pressure;BME280_temperature;BME280_humidity;BME280_pressure;Samples;Min_cycle;Max_cycle;Signal;HPM_P1;HPM_P2
2022/12/31 00:02:23;;;;;;;27.90;20.35;;;19.10;84.80;;;;;;1829969;77;21112;-86
2022/12/31 00:04:55;;;;;;;28.85;21.10;;;19.10;84.80;;;;;;1833830;77;21088;-85
2022/12/31 00:07:26;;;;;;;26.60;20.30;;;19.00;84.70;;;;;;1822481;78;21215;-85
2022/12/31 00:09:56;;;;;;;27.52;20.35;;;19.10;84.50;;;;;;1821577;77;21201;-85
2022/12/31 00:12:27;;;;;;;24.67;18.75;;;19.10;84.70;;;;;;1835627;78;22172;-85
2022/12/31 00:15:02;;;;;;;24.77;18.30;;;19.10;84.70;;;;;;1835341;77;21167;-85
2022/12/31 00:17:33;;;;;;;26.00;18.70;;;19.10;85.50;;;;;;1833245;78;21199;-85
2022/12/31 00:20:04;;;;;;;26.02;18.92;;;19.10;84.60;;;;;;1824403;77;21519;-85
2022/12/31 00:22:35;;;;;;;23.80;17.20;;;19.20;85.00;;;;;;1813144;79;21606;-85
2022/12/31 00:25:07;;;;;;;21.48;16.55;;;19.20;85.00;;;;;;1809131;77;21132;-85
2022/12/31 00:27:37;;;;;;;26.52;16.95;;;19.20;84.70;;;;;;1780965;79;21064;-85
2022/12/31 00:30:09;;;;;;;27.82;18.60;;;19.20;84.20;;;;;;1793110;79;21092;-85
2022/12/31 00:32:40;;;;;;;28.77;19.12;;;19.30;83.60;;;;;;1777315;78;21048;-85
2022/12/31 00:35:11;;;;;;;33.40;21.02;;;19.30;83.20;;;;;;1795588;80;21054;-85
2022/12/31 00:37:42;;;;;;;26.82;20.52;;;19.30;83.10;;;;;;1759877;81;21199;-86
2022/12/31 00:40:13;;;;;;;30.23;21.17;;;19.30;82.90;;;;;;1758059;79;21164;-85
2022/12/31 00:42:44;;;;;;;32.05;21.42;;;19.40;83.00;;;;;;1745835;80;21103;-86
2022/12/31 00:45:14;;;;;;;34.85;24.47;;;19.40;83.10;;;;;;1756003;80;21492;-86
2022/12/31 00:47:45;;;;;;;32.98;23.90;;;19.50;82.60;;;;;;1814782;79;21076;-85
2022/12/31 00:50:16;;;;;;;32.08;22.55;;;19.50;82.30;;;;;;1801816;78;21183;-86
2022/12/31 00:52:46;;;;;;;25.77;18.55;;;19.50;82.20;;;;;;1765757;81;21215;-86
2022/12/31 00:55:18;;;;;;;23.98;17.00;;;19.50;81.80;;;;;;1761615;80;21216;-87
2022/12/31 00:57:49;;;;;;;21.85;16.37;;;19.50;81.60;;;;;;1762243;79;21105;-86
2022/12/31 01:00:20;;;;;;;20.88;14.00;;;19.60;81.60;;;;;;1822674;76;21108;-87
2022/12/31 01:02:50;;;;;;;22.17;14.73;;;19.50;81.60;;;;;;1825539;77;21150;-85
2022/12/31 01:05:21;;;;;;;19.77;13.50;;;19.60;81.50;;;;;;1842991;76;21264;-85
2022/12/31 01:07:53;;;;;;;17.32;13.38;;;19.70;81.50;;;;;;1820166;79;21091;-85
2022/12/31 01:13:14;;;;;;;18.12;14.58;;;19.70;81.50;;;;;;1833162;76;21123;-88
2022/12/31 01:15:45;;;;;;;17.55;13.18;;;19.80;81.30;;;;;;1831584;76;21230;-88
2022/12/31 01:18:15;;;;;;;16.73;12.25;;;19.90;81.00;;;;;;1850671;76;21147;-86
2022/12/31 01:20:46;;;;;;;16.42;12.20;;;20.00;80.40;;;;;;1850414;77;21529;-86
2022/12/31 01:23:17;;;;;;;15.70;11.48;;;20.10;79.90;;;;;;1838679;76;21141;-85
2022/12/31 01:25:47;;;;;;;17.60;13.20;;;20.10;79.50;;;;;;1840657;76;21111;-85
2022/12/31 01:28:18;;;;;;;20.88;12.75;;;20.10;79.30;;;;;;1835701;77;21144;-86
2022/12/31 01:30:49;;;;;;;16.27;12.05;;;20.10;79.60;;;;;;1849665;76;21623;-85
2022/12/31 01:33:20;;;;;;;15.95;11.75;;;20.10;79.40;;;;;;1843005;76;21088;-87
2022/12/31 01:35:50;;;;;;;18.17;12.98;;;20.20;79.50;;;;;;1850816;76;21094;-86
2022/12/31 01:38:21;;;;;;;16.00;12.18;;;20.20;79.50;;;;;;1814800;77;21090;-86
2022/12/31 01:40:52;;;;;;;14.60;10.30;;;20.30;79.30;;;;;;1818683;76;21226;-86
2022/12/31 01:43:23;;;;;;;15.23;11.00;;;20.30;78.80;;;;;;1848688;76;21556;-86
2022/12/31 01:45:55;;;;;;;17.02;11.45;;;20.30;78.80;;;;;;1838140;76;21197;-86
2022/12/31 01:48:27;;;;;;;19.25;12.03;;;20.30;79.00;;;;;;1849524;76;21080;-86
2022/12/31 01:50:58;;;;;;;16.70;11.12;;;20.30;79.00;;;;;;1847413;76;21300;-85
2022/12/31 01:53:29;;;;;;;14.45;11.03;;;20.30;78.80;;;;;;1848855;76;21143;-86
2022/12/31 01:56:01;;;;;;;18.20;11.73;;;20.40;78.50;;;;;;1830778;76;21125;-87
2022/12/31 01:58:38;;;;;;;15.30;11.53;;;20.40;78.30;;;;;;1840442;77;21168;-86
2022/12/31 02:01:11;;;;;;;16.10;11.40;;;20.40;78.70;;;;;;1843717;76;21095;-87
2022/12/31 02:03:43;;;;;;;18.90;12.30;;;20.50;78.90;;;;;;1843040;76;21158;-87
2022/12/31 02:06:22;;;;;;;17.90;12.00;;;20.50;78.50;;;;;;1837326;77;21123;-87
2022/12/31 02:08:53;;;;;;;15.75;11.43;;;20.50;78.40;;;;;;1823440;77;21591;-87
2022/12/31 02:11:29;;;;;;;15.23;11.38;;;20.60;78.40;;;;;;1839960;76;21135;-85
2022/12/31 02:14:02;;;;;;;12.60;9.33;;;20.70;78.60;;;;;;1839559;76;21543;-86
2022/12/31 02:16:42;;;;;;;11.15;9.18;;;20.80;77.10;;;;;;1835465;77;21159;-87
2022/12/31 02:19:48;;;;;;;16.10;10.05;;;20.80;77.20;;;;;;1836879;76;21123;-86
2022/12/31 02:22:25;;;;;;;10.15;9.03;;;20.80;77.30;;;;;;1828921;76;21138;-86
2022/12/31 02:25:01;;;;;;;13.60;9.50;;;20.90;77.80;;;;;;1838244;76;21174;-86
2022/12/31 02:27:43;;;;;;;12.00;9.73;;;21.00;76.60;;;;;;1828141;76;21064;-87
2022/12/31 02:30:16;;;;;;;14.35;9.93;;;21.00;76.40;;;;;;1835648;77;21076;-86
2022/12/31 02:33:01;;;;;;;12.20;9.65;;;21.10;76.60;;;;;;1839907;76;21120;-86
2022/12/31 02:35:43;;;;;;;12.47;8.90;;;21.20;76.40;;;;;;1835437;76;21104;-85
2022/12/31 02:38:25;;;;;;;10.70;8.45;;;21.20;76.30;;;;;;1837310;78;21069;-85
2022/12/31 02:40:56;;;;;;;10.20;8.35;;;21.20;75.80;;;;;;1832449;76;21120;-87
2022/12/31 02:43:28;;;;;;;11.90;8.40;;;21.20;75.60;;;;;;1834714;76;21676;-87
2022/12/31 02:46:17;;;;;;;14.13;8.58;;;21.30;75.60;;;;;;1834440;77;21086;-85
2022/12/31 02:48:59;;;;;;;11.75;9.20;;;21.30;76.50;;;;;;1812587;77;21174;-85
2022/12/31 02:51:41;;;;;;;11.22;8.50;;;21.30;75.30;;;;;;1813553;78;21203;-86
2022/12/31 02:54:20;;;;;;;12.55;9.08;;;21.40;76.50;;;;;;1839759;76;21287;-84
2022/12/31 02:57:02;;;;;;;12.73;9.03;;;21.40;75.50;;;;;;1834810;76;21073;-84
2022/12/31 03:02:29;;;;;;;13.65;10.60;;;21.50;75.40;;;;;;1767609;78;21161;-86
2022/12/31 03:05:02;;;;;;;12.33;9.23;;;21.60;76.00;;;;;;1823846;77;21149;-85
2022/12/31 03:07:33;;;;;;;13.00;9.90;;;21.60;74.80;;;;;;1827562;77;21160;-86
2022/12/31 03:10:04;;;;;;;13.50;9.58;;;21.70;74.90;;;;;;1824293;78;21294;-86
2022/12/31 03:12:48;;;;;;;13.68;9.43;;;21.70;74.80;;;;;;1817758;77;21119;-86
2022/12/31 03:15:27;;;;;;;13.15;9.83;;;21.70;74.60;;;;;;1825407;76;21163;-83
2022/12/31 03:18:04;;;;;;;13.95;9.43;;;21.80;73.90;;;;;;1814548;77;21098;-84
2022/12/31 03:23:48;;;;;;;13.58;9.28;;;22.00;73.70;;;;;;1826546;77;21164;-84
2022/12/31 03:26:15;;;;;;;12.33;8.60;;;22.10;73.30;;;;;;1811940;77;21106;-84
2022/12/31 03:28:46;;;;;;;13.38;9.20;;;22.20;73.20;;;;;;1825620;78;21088;-84
2022/12/31 03:31:17;;;;;;;11.48;8.70;;;22.20;72.60;;;;;;1830358;77;21098;-84
2022/12/31 03:33:47;;;;;;;15.55;9.83;;;22.30;72.90;;;;;;1826526;77;21144;-84
2022/12/31 03:36:18;;;;;;;14.35;10.05;;;22.40;72.00;;;;;;1827011;77;21154;-84
2022/12/31 03:38:49;;;;;;;12.60;9.50;;;22.50;71.30;;;;;;1823563;77;21136;-83
2022/12/31 03:41:21;;;;;;;15.08;9.80;;;22.50;71.20;;;;;;1819325;77;21136;-86
2022/12/31 03:43:52;;;;;;;13.05;9.63;;;22.60;71.00;;;;;;1798928;77;21073;-85
2022/12/31 03:46:22;;;;;;;12.80;9.63;;;22.70;71.90;;;;;;1776855;79;21131;-84
2022/12/31 03:48:53;;;;;;;11.63;9.60;;;22.80;70.70;;;;;;1803071;79;21603;-86
2022/12/31 03:51:25;;;;;;;12.70;9.63;;;22.90;70.70;;;;;;1814144;77;21121;-86
2022/12/31 03:53:56;;;;;;;12.35;9.03;;;23.00;70.60;;;;;;1776697;79;21529;-85
2022/12/31 03:56:27;;;;;;;12.43;9.30;;;23.10;70.30;;;;;;1810602;77;21082;-87
2022/12/31 03:58:58;;;;;;;12.13;9.65;;;23.20;70.40;;;;;;1802143;80;21219;-86
2022/12/31 04:01:28;;;;;;;12.82;10.35;;;23.30;69.70;;;;;;1795194;78;21071;-86
2022/12/31 04:03:59;;;;;;;11.15;8.50;;;23.40;69.70;;;;;;1823314;78;21655;-85
2022/12/31 04:06:30;;;;;;;13.20;9.03;;;23.50;69.30;;;;;;1841255;77;21084;-87
2022/12/31 04:09:00;;;;;;;15.63;9.48;;;23.60;68.70;;;;;;1841006;77;21146;-83
2022/12/31 04:11:31;;;;;;;12.58;9.05;;;23.70;68.80;;;;;;1842115;76;21100;-83
2022/12/31 04:14:02;;;;;;;10.32;8.08;;;23.80;68.50;;;;;;1865831;76;21545;-84
2022/12/31 04:16:33;;;;;;;15.32;8.60;;;24.00;68.30;;;;;;1858132;76;21087;-84
2022/12/31 04:19:04;;;;;;;9.63;8.28;;;24.00;67.90;;;;;;1841875;77;21197;-84
2022/12/31 04:21:34;;;;;;;12.10;8.83;;;24.10;67.90;;;;;;1841890;76;21582;-84
2022/12/31 04:24:06;;;;;;;10.00;7.70;;;24.20;67.20;;;;;;1845627;76;21090;-84
2022/12/31 04:26:38;;;;;;;11.18;8.33;;;24.20;66.90;;;;;;1815156;78;21100;-83
2022/12/31 04:29:09;;;;;;;10.03;7.90;;;24.30;67.30;;;;;;1836522;78;21199;-84
2022/12/31 04:31:40;;;;;;;10.13;7.90;;;24.50;66.20;;;;;;1828915;76;21093;-85
2022/12/31 04:34:10;;;;;;;12.55;8.83;;;24.50;65.90;;;;;;1836092;78;21084;-84
2022/12/31 04:36:41;;;;;;;11.15;8.10;;;24.60;65.80;;;;;;1827449;78;21151;-85
2022/12/31 04:39:11;;;;;;;10.58;8.03;;;;;;;;;;1820744;78;21199;-83
2022/12/31 04:41:42;;;;;;;11.05;8.18;;;24.80;64.10;;;;;;1800702;78;21098;-84
2022/12/31 04:44:25;;;;;;;10.38;7.47;;;24.80;64.50;;;;;;1812516;79;21146;-83
2022/12/31 04:47:01;;;;;;;21.07;9.17;;;25.00;64.90;;;;;;1795467;78;21568;-85
2022/12/31 04:49:37;;;;;;;9.00;7.30;;;25.00;65.10;;;;;;1830712;77;21252;-83
2022/12/31 04:52:25;;;;;;;11.15;9.10;;;25.00;63.80;;;;;;1814655;77;21113;-85
2022/12/31 04:54:54;;;;;;;11.80;8.15;;;25.10;63.50;;;;;;1834587;76;21173;-84
2022/12/31 04:57:25;;;;;;;9.93;7.47;;;25.20;62.70;;;;;;1838915;77;21119;-84
2022/12/31 04:59:57;;;;;;;10.18;7.53;;;25.30;62.60;;;;;;1793209;79;21139;-83
2022/12/31 05:02:28;;;;;;;10.38;7.65;;;25.40;63.00;;;;;;1833505;77;21084;-84
2022/12/31 05:04:59;;;;;;;11.03;7.87;;;25.50;63.30;;;;;;1848888;77;21174;-84
2022/12/31 05:07:30;;;;;;;10.10;8.05;;;25.60;63.40;;;;;;1845258;76;21093;-83
2022/12/31 05:10:01;;;;;;;9.68;7.53;;;25.70;62.60;;;;;;1821370;76;21131;-83
2022/12/31 05:12:32;;;;;;;10.50;8.30;;;25.70;61.90;;;;;;1842574;77;21150;-83
2022/12/31 05:15:02;;;;;;;11.22;7.75;;;25.70;61.50;;;;;;1843260;77;21092;-84
2022/12/31 05:17:33;;;;;;;9.88;7.20;;;25.80;61.80;;;;;;1839096;76;21153;-84
2022/12/31 05:20:04;;;;;;;9.40;7.78;;;25.90;61.10;;;;;;1848483;76;21146;-85
2022/12/31 05:22:35;;;;;;;10.60;7.75;;;25.90;60.70;;;;;;1821236;77;21150;-84
2022/12/31 05:25:06;;;;;;;9.83;7.95;;;25.90;61.30;;;;;;1841930;76;21147;-84
2022/12/31 05:27:37;;;;;;;8.43;7.05;;;25.90;60.80;;;;;;1777471;81;21157;-85
2022/12/31 05:30:09;;;;;;;10.15;7.58;;;25.90;60.50;;;;;;1802258;79;21179;-84
2022/12/31 05:32:41;;;;;;;9.83;7.17;;;26.00;60.90;;;;;;1828092;76;21619;-83
2022/12/31 05:35:13;;;;;;;10.43;8.18;;;26.00;60.70;;;;;;1793229;79;21148;-85
2022/12/31 05:37:44;;;;;;;12.18;8.70;;;26.00;60.60;;;;;;1811501;78;21100;-85
2022/12/31 05:40:15;;;;;;;11.15;8.78;;;26.00;60.50;;;;;;1833506;78;21190;-85
2022/12/31 05:42:46;;;;;;;9.73;7.80;;;26.10;60.70;;;;;;1825945;78;21591;-84
2022/12/31 05:45:17;;;;;;;9.45;6.90;;;26.10;60.30;;;;;;1836161;77;21132;-85
2022/12/31 05:47:49;;;;;;;9.38;7.53;;;26.10;60.00;;;;;;1811295;77;21145;-85
2022/12/31 05:50:22;;;;;;;11.57;8.33;;;26.10;60.00;;;;;;1835512;77;21164;-85
2022/12/31 05:52:53;;;;;;;11.73;7.92;;;26.20;60.30;;;;;;1801892;79;21198;-85
2022/12/31 05:55:24;;;;;;;9.83;7.95;;;26.30;60.20;;;;;;1839114;76;21210;-85
2022/12/31 05:57:56;;;;;;;9.50;7.40;;;26.30;59.90;;;;;;1829629;78;21121;-85
2022/12/31 06:00:33;;;;;;;11.53;7.20;;;26.30;59.30;;;;;;1807730;78;21200;-87
2022/12/31 06:03:00;;;;;;;10.08;8.05;;;26.40;58.90;;;;;;1783396;79;21166;-85
2022/12/31 06:05:31;;;;;;;9.08;7.03;;;26.40;59.30;;;;;;1798440;79;21605;-85
2022/12/31 06:08:01;;;;;;;9.85;8.05;;;26.50;59.20;;;;;;1796311;79;21096;-84
2022/12/31 06:10:32;;;;;;;9.25;7.17;;;26.60;59.30;;;;;;1833039;78;21092;-85
2022/12/31 06:13:06;;;;;;;9.48;7.20;;;26.60;58.60;;;;;;1840152;78;21154;-85
2022/12/31 06:15:40;;;;;;;9.90;6.78;;;26.60;58.40;;;;;;1840525;76;21092;-84
2022/12/31 06:18:11;;;;;;;9.48;7.70;;;26.60;58.50;;;;;;1837146;78;21127;-85
2022/12/31 06:20:41;;;;;;;8.73;7.05;;;26.70;58.90;;;;;;1839583;78;21116;-86
2022/12/31 06:23:12;;;;;;;8.63;6.42;;;26.70;58.40;;;;;;1817055;78;21088;-86
2022/12/31 06:25:43;;;;;;;9.83;7.87;;;26.70;58.60;;;;;;1838414;78;21089;-85
2022/12/31 06:28:13;;;;;;;8.60;6.67;;;26.80;58.90;;;;;;1840649;77;21230;-86
2022/12/31 06:30:46;;;;;;;10.20;7.30;;;26.80;59.00;;;;;;1837401;78;21100;-85
2022/12/31 06:33:16;;;;;;;8.50;7.03;;;26.90;58.40;;;;;;1815428;79;21164;-86
2022/12/31 06:35:47;;;;;;;8.43;6.83;;;26.90;58.00;;;;;;1808880;79;21168;-86
2022/12/31 06:38:18;;;;;;;10.80;7.75;;;27.00;57.70;;;;;;1841199;78;21088;-86
2022/12/31 06:40:49;;;;;;;10.10;7.40;;;27.00;57.90;;;;;;1838512;76;21265;-85
2022/12/31 06:43:19;;;;;;;8.60;7.05;;;27.00;58.10;;;;;;1815536;78;21153;-87
2022/12/31 06:45:51;;;;;;;10.35;7.33;;;27.00;58.00;;;;;;1851374;77;21167;-86
2022/12/31 06:48:21;;;;;;;10.93;7.17;;;27.00;57.80;;;;;;1832999;78;21097;-86
2022/12/31 06:50:52;;;;;;;9.00;6.92;;;27.00;57.70;;;;;;1828579;78;21089;-86
2022/12/31 06:53:23;;;;;;;9.63;7.72;;;27.00;58.20;;;;;;1828820;78;21073;-86
2022/12/31 06:55:54;;;;;;;10.03;7.33;;;27.00;57.70;;;;;;1828649;78;21105;-86
2022/12/31 06:58:25;;;;;;;10.75;7.50;;;27.10;58.10;;;;;;1840232;78;21154;-85
2022/12/31 07:01:01;;;;;;;10.90;7.40;;;27.10;57.90;;;;;;1824606;78;21104;-90
2022/12/31 07:03:41;;;;;;;10.08;7.05;;;27.10;57.60;;;;;;1811208;78;21242;-86
2022/12/31 07:06:21;;;;;;;8.95;7.12;;;27.10;57.70;;;;;;1838692;78;21186;-86
2022/12/31 07:09:03;;;;;;;9.83;7.55;;;27.10;58.20;;;;;;1800179;79;21081;-85
2022/12/31 07:11:51;;;;;;;8.00;6.90;;;27.20;57.70;;;;;;1790241;79;21211;-85
2022/12/31 07:14:37;;;;;;;11.83;7.12;;;27.20;57.80;;;;;;1799378;78;21089;-86
2022/12/31 07:17:19;;;;;;;9.18;7.20;;;27.20;57.40;;;;;;1852423;77;21617;-87
2022/12/31 07:19:55;;;;;;;8.70;7.10;;;27.20;57.10;;;;;;1849831;77;21146;-86
2022/12/31 07:22:31;;;;;;;9.05;7.20;;;27.20;57.70;;;;;;1850591;77;21104;-86
2022/12/31 07:25:03;;;;;;;9.25;6.62;;;27.10;57.80;;;;;;1849858;77;21143;-86
2022/12/31 07:28:00;;;;;;;7.87;6.35;;;27.10;56.80;;;;;;1849289;77;21088;-86
2022/12/31 07:31:00;;;;;;;9.48;6.87;;;27.10;57.20;;;;;;1850161;77;21150;-87
2022/12/31 07:34:01;;;;;;;9.20;6.10;;;27.00;57.00;;;;;;1824032;77;21590;-87
2022/12/31 07:36:49;;;;;;;8.28;6.58;;;27.00;57.30;;;;;;1855165;77;21178;-86
2022/12/31 07:39:30;;;;;;;8.88;6.33;;;27.00;57.70;;;;;;1838996;77;21150;-85
2022/12/31 07:42:27;;;;;;;7.10;6.05;;;27.00;57.50;;;;;;1849906;76;21147;-86
2022/12/31 07:45:12;;;;;;;7.65;6.03;;;27.00;57.10;;;;;;1800998;77;21167;-86
2022/12/31 07:47:44;;;;;;;9.15;6.70;;;27.00;57.30;;;;;;1818410;77;21102;-86
2022/12/31 07:50:16;;;;;;;8.73;6.97;;;27.00;56.90;;;;;;1833617;77;21143;-86
2022/12/31 07:52:49;;;;;;;8.98;6.42;;;27.00;57.20;;;;;;1848085;77;21598;-87
2022/12/31 07:55:20;;;;;;;9.68;6.83;;;27.00;56.80;;;;;;1850004;77;21151;-87
2022/12/31 07:58:02;;;;;;;8.70;7.25;;;27.00;57.20;;;;;;1849908;77;21602;-87
2022/12/31 08:00:33;;;;;;;9.10;6.60;;;27.00;57.30;;;;;;1845934;76;21241;-86
2022/12/31 08:03:19;;;;;;;6.85;5.50;;;27.00;57.30;;;;;;1849021;77;21100;-87
2022/12/31 08:05:52;;;;;;;7.08;5.55;;;27.00;56.80;;;;;;1849897;76;21104;-87
2022/12/31 08:08:45;;;;;;;8.80;6.10;;;27.00;56.80;;;;;;1805883;78;21120;-86
2022/12/31 08:11:27;;;;;;;8.03;5.60;;;26.90;56.80;;;;;;1846860;78;21132;-86
2022/12/31 08:14:00;;;;;;;8.90;6.08;;;26.90;56.90;;;;;;1847327;76;21084;-86
2022/12/31 08:16:33;;;;;;;8.98;5.50;;;26.90;57.20;;;;;;1830974;78;21159;-86
2022/12/31 08:19:04;;;;;;;7.33;5.97;;;26.90;57.00;;;;;;1827331;78;21069;-86
2022/12/31 08:21:59;;;;;;;7.40;6.08;;;26.90;57.00;;;;;;1785745;79;21077;-85
2022/12/31 08:24:54;;;;;;;7.45;5.67;;;26.90;57.20;;;;;;1832049;76;21728;-85
2022/12/31 08:27:33;;;;;;;10.05;5.78;;;26.90;56.70;;;;;;1830184;78;21084;-86
2022/12/31 08:30:12;;;;;;;8.30;6.70;;;26.90;57.40;;;;;;1818247;79;21071;-87
2022/12/31 08:32:57;;;;;;;6.87;5.60;;;26.90;57.30;;;;;;1832414;78;21104;-87
2022/12/31 08:35:36;;;;;;;10.30;6.40;;;26.90;56.90;;;;;;1831731;78;21136;-87
2022/12/31 08:38:34;;;;;;;9.60;6.05;;;26.90;57.20;;;;;;1817892;75;21132;-87
2022/12/31 08:41:19;;;;;;;8.48;6.10;;;26.90;57.20;;;;;;1832901;78;21100;-86
2022/12/31 08:44:04;;;;;;;7.50;5.87;;;26.80;57.10;;;;;;1825032;78;21131;-87
2022/12/31 08:46:52;;;;;;;6.42;5.25;;;26.80;57.30;;;;;;1828221;78;21080;-86
2022/12/31 08:49:26;;;;;;;8.88;5.95;;;26.80;57.40;;;;;;1839011;76;21111;-86
2022/12/31 08:51:57;;;;;;;7.30;5.58;;;26.80;57.20;;;;;;1846810;78;21076;-86
2022/12/31 08:54:29;;;;;;;7.28;5.90;;;26.80;56.60;;;;;;1845103;78;21944;-86
2022/12/31 08:57:32;;;;;;;7.62;5.70;;;26.70;56.90;;;;;;1848294;76;21139;-86
2022/12/31 09:00:11;;;;;;;7.97;5.60;;;26.70;56.90;;;;;;1864854;76;21060;-87
2022/12/31 09:03:02;;;;;;;6.75;5.60;;;26.70;57.20;;;;;;1862873;76;21086;-85
2022/12/31 09:08:41;;;;;;;6.40;5.30;;;26.60;57.70;;;;;;1886650;76;21125;-86
2022/12/31 09:11:20;;;;;;;8.33;5.80;;;26.50;57.20;;;;;;1882480;76;21149;-85
2022/12/31 09:14:00;;;;;;;8.03;6.30;;;26.50;58.10;;;;;;1895448;74;21480;-87
2022/12/31 09:16:39;;;;;;;8.43;5.55;;;26.50;57.40;;;;;;1890505;75;21083;-85
2022/12/31 09:19:11;;;;;;;9.00;5.62;;;26.50;57.40;;;;;;1896312;75;21574;-86
2022/12/31 09:21:46;;;;;;;8.73;5.78;;;26.50;57.40;;;;;;1893008;75;21133;-86
2022/12/31 09:24:17;;;;;;;7.60;5.67;;;26.50;57.50;;;;;;1891118;76;21075;-86
2022/12/31 09:27:04;;;;;;;6.87;5.37;;;26.40;57.10;;;;;;1885383;76;21080;-85
2022/12/31 09:29:46;;;;;;;8.33;5.60;;;26.40;56.90;;;;;;1897193;75;21052;-86
2022/12/31 09:32:33;;;;;;;7.20;5.45;;;26.40;57.30;;;;;;1889836;75;21142;-86
2022/12/31 09:35:23;;;;;;;7.45;6.05;;;26.40;57.50;;;;;;1907341;75;21205;-85
2022/12/31 09:38:02;;;;;;;7.72;5.70;;;26.30;57.50;;;;;;1889228;75;21076;-85
2022/12/31 09:41:06;;;;;;;6.87;5.70;;;26.30;57.70;;;;;;1898109;75;21189;-85
2022/12/31 09:44:08;;;;;;;8.80;6.20;;;26.30;57.60;;;;;;1884002;74;21134;-84
2022/12/31 09:47:19;;;;;;;8.18;6.15;;;26.30;57.90;;;;;;1868019;75;21710;-85
2022/12/31 09:50:17;;;;;;;9.18;5.75;;;26.20;57.80;;;;;;1881204;76;21172;-85
2022/12/31 09:52:53;;;;;;;8.65;5.40;;;26.20;57.90;;;;;;1887023;75;21138;-86
2022/12/31 09:55:35;;;;;;;11.28;6.05;;;26.20;58.00;;;;;;1885877;76;21594;-86
2022/12/31 09:58:42;;;;;;;12.33;6.78;;;26.10;58.20;;;;;;1886283;75;21557;-87
2022/12/31 10:01:27;;;;;;;8.70;6.45;;;26.10;58.40;;;;;;1878056;76;21185;-86
2022/12/31 10:04:06;;;;;;;10.60;6.75;;;26.10;58.70;;;;;;1863913;74;21504;-85
2022/12/31 10:06:47;;;;;;;10.85;7.10;;;26.00;58.90;;;;;;1877223;74;21242;-86
2022/12/31 10:09:55;;;;;;;11.38;8.03;;;26.00;59.00;;;;;;1892208;74;21161;-85
2022/12/31 10:12:46;;;;;;;15.38;9.35;;;25.90;59.00;;;;;;1892026;75;21121;-86
2022/12/31 10:15:31;;;;;;;12.55;8.73;;;25.90;59.40;;;;;;1847377;76;21163;-86
2022/12/31 10:18:19;;;;;;;14.90;10.08;;;25.80;59.60;;;;;;1791816;79;21101;-87
2022/12/31 10:21:17;;;;;;;13.98;9.23;;;25.80;59.80;;;;;;1847716;77;21113;-86
2022/12/31 10:24:17;;;;;;;13.58;10.10;;;25.70;60.10;;;;;;1864371;76;21118;-86
2022/12/31 10:27:15;;;;;;;13.20;10.00;;;25.70;60.50;;;;;;1821872;77;21079;-84
2022/12/31 10:30:03;;;;;;;11.85;9.45;;;25.60;60.50;;;;;;1858520;76;21091;-85
2022/12/31 10:33:01;;;;;;;13.28;9.43;;;25.60;60.80;;;;;;1859266;76;21119;-85
2022/12/31 10:35:50;;;;;;;14.00;10.23;;;25.60;61.10;;;;;;1885744;75;21661;-86
2022/12/31 10:38:54;;;;;;;16.25;10.65;;;25.50;61.20;;;;;;1851055;77;21109;-85
2022/12/31 10:41:44;;;;;;;15.63;10.70;;;25.50;61.50;;;;;;1795382;78;21111;-85
2022/12/31 10:44:34;;;;;;;16.67;12.35;;;25.40;61.60;;;;;;1823973;77;21063;-85
2022/12/31 10:47:13;;;;;;;17.50;12.18;;;25.40;61.90;;;;;;1808435;78;21135;-86
2022/12/31 10:50:02;;;;;;;15.60;10.78;;;25.30;62.00;;;;;;1864609;74;21555;-86
2022/12/31 10:53:00;;;;;;;14.87;11.22;;;25.30;62.10;;;;;;1848887;77;21089;-86
2022/12/31 10:55:45;;;;;;;15.32;10.35;;;25.30;62.30;;;;;;1848704;78;21105;-84
2022/12/31 10:58:33;;;;;;;12.88;9.30;;;25.30;63.60;;;;;;1846145;76;21558;-85
2022/12/31 11:01:18;;;;;;;13.55;9.98;;;25.20;62.70;;;;;;1772010;79;21114;-86
2022/12/31 11:04:20;;;;;;;15.15;10.40;;;25.20;62.90;;;;;;1852741;77;21119;-85
2022/12/31 11:07:18;;;;;;;17.50;11.57;;;25.10;63.10;;;;;;1804282;78;21183;-84
2022/12/31 11:10:24;;;;;;;16.52;11.90;;;25.10;63.30;;;;;;1792628;80;21064;-84
2022/12/31 11:13:04;;;;;;;15.53;11.78;;;25.10;63.40;;;;;;1878937;76;21083;-85
2022/12/31 11:15:39;;;;;;;16.60;11.65;;;25.10;63.70;;;;;;1861318;76;21079;-85
2022/12/31 11:18:17;;;;;;;18.12;12.63;;;25.00;63.70;;;;;;1846932;76;21148;-85
2022/12/31 11:21:09;;;;;;;19.27;12.37;;;25.00;63.90;;;;;;1830230;76;21558;-85
2022/12/31 11:23:52;;;;;;;16.42;12.00;;;25.00;64.00;;;;;;1844820;76;21107;-85
2022/12/31 11:26:48;;;;;;;20.80;14.07;;;25.00;64.10;;;;;;1833752;76;21146;-85
2022/12/31 11:29:44;;;;;;;19.75;12.85;;;24.90;64.30;;;;;;1820206;78;21093;-85
2022/12/31 11:32:40;;;;;;;23.00;13.40;;;24.90;64.40;;;;;;1827291;77;21082;-85
2022/12/31 11:35:25;;;;;;;20.12;15.10;;;24.90;64.60;;;;;;1865920;76;21079;-84
2022/12/31 11:37:58;;;;;;;18.82;13.45;;;24.80;64.70;;;;;;1832913;78;21599;-84
2022/12/31 11:40:52;;;;;;;20.48;13.03;;;24.80;64.70;;;;;;1801623;79;21548;-84
2022/12/31 11:43:34;;;;;;;17.55;12.47;;;24.80;64.80;;;;;;1864794;77;21088;-83
2022/12/31 11:46:19;;;;;;;16.77;12.78;;;24.80;65.00;;;;;;1846606;77;21592;-82
2022/12/31 11:49:15;;;;;;;18.07;12.90;;;24.70;65.10;;;;;;1850432;77;21112;-84
2022/12/31 11:52:00;;;;;;;19.23;13.43;;;24.70;65.40;;;;;;1862145;76;21189;-83
2022/12/31 11:54:50;;;;;;;25.80;15.98;;;24.70;65.60;;;;;;1826464;78;21076;-84
2022/12/31 11:57:26;;;;;;;28.95;19.27;;;24.60;65.70;;;;;;1880959;75;21130;-84
2022/12/31 11:59:59;;;;;;;30.40;18.92;;;24.60;65.90;;;;;;1887609;76;21593;-85
2022/12/31 12:02:38;;;;;;;36.93;20.82;;;24.60;65.90;;;;;;1890460;75;21136;-85
2022/12/31 12:05:10;;;;;;;29.80;19.92;;;24.50;66.00;;;;;;1892639;76;21149;-84
2022/12/31 12:07:41;;;;;;;26.52;17.32;;;24.50;66.00;;;;;;1893560;75;21047;-84
2022/12/31 12:10:26;;;;;;;26.82;18.23;;;24.50;66.90;;;;;;1899978;75;21563;-84
2022/12/31 12:13:00;;;;;;;26.80;18.65;;;24.50;66.20;;;;;;1899909;75;21185;-84
2022/12/31 12:15:35;;;;;;;30.62;18.62;;;24.50;66.30;;;;;;1890419;75;21123;-85
2022/12/31 12:18:08;;;;;;;22.55;16.20;;;24.40;66.20;;;;;;1842074;78;21143;-84
2022/12/31 12:20:40;;;;;;;23.62;16.15;;;24.40;66.50;;;;;;1823165;78;21088;-86
2022/12/31 12:23:27;;;;;;;23.52;16.52;;;24.40;66.40;;;;;;1771468;80;21135;-86
2022/12/31 12:25:55;;;;;;;20.48;15.53;;;24.40;66.50;;;;;;1804524;78;21155;-86
2022/12/31 12:28:28;;;;;;;24.02;15.48;;;24.40;67.50;;;;;;1817247;79;21059;-86
2022/12/31 12:31:04;;;;;;;23.95;15.83;;;24.30;66.70;;;;;;1825683;77;21576;-85
2022/12/31 12:33:46;;;;;;;20.20;15.05;;;24.30;66.80;;;;;;1879390;76;21084;-86
2022/12/31 12:36:19;;;;;;;19.37;14.15;;;24.30;66.90;;;;;;1910176;74;21083;-87
2022/12/31 12:38:52;;;;;;;18.50;13.35;;;24.30;67.00;;;;;;1848831;76;21146;-85
2022/12/31 12:41:26;;;;;;;20.17;14.07;;;24.30;67.20;;;;;;1830928;78;21142;-86
2022/12/31 12:44:11;;;;;;;19.23;13.93;;;24.20;67.20;;;;;;1839184;78;21662;-86
2022/12/31 12:46:49;;;;;;;20.48;13.60;;;24.20;67.30;;;;;;1835294;77;21075;-86
2022/12/31 12:49:38;;;;;;;21.50;14.20;;;24.20;67.40;;;;;;1843410;78;21584;-86
2022/12/31 12:52:45;;;;;;;19.10;14.18;;;24.10;67.60;;;;;;1874302;75;21068;-86
2022/12/31 12:55:45;;;;;;;23.90;15.38;;;24.10;68.00;;;;;;1804016;77;21092;-86
2022/12/31 12:58:33;;;;;;;23.42;16.48;;;24.00;68.20;;;;;;1827599;76;21065;-88
2022/12/31 13:01:12;;;;;;;23.12;15.85;;;24.00;68.40;;;;;;1802843;79;21093;-87
2022/12/31 13:04:07;;;;;;;24.65;17.32;;;23.90;68.60;;;;;;1817540;79;21089;-86
2022/12/31 13:06:44;;;;;;;23.47;16.77;;;23.90;68.60;;;;;;1842304;77;21135;-86
2022/12/31 13:09:36;;;;;;;25.67;17.70;;;23.90;68.70;;;;;;1880927;76;21134;-86
2022/12/31 13:12:15;;;;;;;27.32;17.90;;;23.80;68.90;;;;;;1919390;74;21150;-85
2022/12/31 13:15:10;;;;;;;30.05;18.25;;;23.80;69.10;;;;;;1878164;76;21056;-87
2022/12/31 13:17:43;;;;;;;27.07;17.70;;;23.70;69.30;;;;;;1837565;77;21107;-86
2022/12/31 13:20:33;;;;;;;30.00;18.95;;;23.70;69.70;;;;;;1831715;78;21148;-86
2022/12/31 13:23:23;;;;;;;24.87;16.87;;;23.70;70.20;;;;;;1831925;78;21143;-85
2022/12/31 13:26:05;;;;;;;25.30;16.70;;;23.60;69.80;;;;;;1814707;77;21164;-86
2022/12/31 13:28:39;;;;;;;21.75;17.00;;;23.60;70.50;;;;;;1846237;78;21094;-85
2022/12/31 13:31:15;;;;;;;21.87;16.25;;;23.50;70.60;;;;;;1848674;76;21151;-86
2022/12/31 13:33:48;;;;;;;24.33;16.80;;;23.50;70.50;;;;;;1885128;76;21122;-86
2022/12/31 13:36:21;;;;;;;23.15;14.83;;;23.50;70.80;;;;;;1899557;75;21185;-85
2022/12/31 13:38:57;;;;;;;23.85;15.98;;;23.40;70.90;;;;;;1893611;75;21146;-85
2022/12/31 13:41:46;;;;;;;24.05;16.42;;;23.40;70.90;;;;;;1883550;74;21146;-86
2022/12/31 13:44:34;;;;;;;23.15;15.28;;;23.40;70.90;;;;;;1887405;74;21131;-86